EA1HWA
43.12.00N 005.47.40W
IN73CE aprs.fi
zuletzt gehoert:
2021-11-30T18:31:48Z
zuerst gehoert:
2021-01-20T16:30:10Z

APRS Mieres [IN73CE], 0 Stunde(n), EA1HWA [19:39:43, 0s].
EA1HWA 43.12.00N 005.47.40WIN73CE 0.216km 270°W18:31:48ZMMDVM MMDVM HS Hat 433.4500/433.4500 CC1
EA1JBL 43.12.28N 005.47.42WIN73CE 0.595km 334°NNW18:32:11ZMMDVM DVMega 435.3000/435.3000 CC1
EA1GCM 43.17.02N 005.48.47WIN73CG 9.451km 350°N18:38:49ZAPRS-IS for Win32(3EA1GCM-8)
ED1ZAD 43.07.90N 005.38.52WIN73ED 14.000km 123°ESE18:21:30ZED1ZAD-3 APRS Digi/Igate(3ED1ZAD-3)
EA1L 43.20.38N 005.51.13WIN73BI 16.413km 341°NNW17:56:34ZWind 038°/000kn, Böen bis 000kn, Temp 11.67c, Regen 0.0mm, letzte 24h 0.5mm, seit 0h 0.5mm, Baro 1023.7h, Hum: 85%(3EA1L-13)
ea1l@ure.es V=13.4V,T=??.?C(2EA1L)
EA1AQK 43.16.49N 005.35.99WIN73EG 17.313km 61°ENE18:31:05ZMMDVM MMDVM HS Hat 439.8500/439.8500 CC1
EA1JAY 43.21.54N 005.51.34WIN73BI 18.526km 343°NNW18:00:42Z434.525MHz Nodo TETRA DMO(3EA1JAY-4)
33D00 43.21.63N 005.51.13WIN73BI 18.600km 344°NNW18:01:42Z33-D-00 Protección Civil REMER / Delegación del Gobierno en Asturias
EA1YR 43.22.09N 005.51.86WIN73BI 19.729km 342°NNW18:32:24ZMMDVM DVS 434.3500/434.3500 CC1
EC1AE 43.22.66N 005.47.75WIN73CJ 19.765km 358°N18:18:48Z`EC1AE - FM & Digital C4FM._%(3EC1AE-9)
LEHU 43.22.63N 005.49.57WIN73CJ 19.948km 351°N18:30:18ZHelipuerto del HUCA: LEAS 301730Z 26003KT 9999 FEW042 SCT060 10/08 Q1025 NOSIG=
ED1ZAU 43.23.04N 005.52.75WIN73BJ 21.769km 340°NNW18:32:45ZRD625 438.5000/430.9000 CC1
LEMR 43.25.83N 005.49.60WIN73CK 25.825km 353°N18:30:18ZAerodromo de la Morgal: LEAS 301730Z 26003KT 9999 FEW042 SCT060 10/08 Q1025 NOSIG=
LEGM 43.26.15N 005.49.84WIN73CK 26.471km 352°N18:30:16ZHelipuerto de La Morgal: LEAS 301730Z 26003KT 9999 FEW042 SCT060 10/08 Q1025 NOSIG=
ED1ZAS 43.27.52N 005.40.17WIN73DL 30.309km 18°NNE18:32:46ZRD985 438.2250/430.6250 CC1
ED1ZAE 43.27.99N 005.40.54WIN73DL 30.970km 17°NNE18:39:08Z2m Voice 145.5875 -0.600 Mhz(3ED1ZAE-C)
WIDE3-3 ESAS3-3 IN73DL WWW.EA1URG.ORG(2ED1ZAE-3)
ED1ZAY 43.29.47N 005.56.54WIN73AL 34.734km 339°NNW18:32:46ZRD625 438.3000/430.7000 CC1
EB1GEM 43.30.00N 005.36.07WIN73EM 36.609km 24°NNE18:28:26ZWX3in1Plus2.0 U=13.3V,T=??.?C/??.?F(3EB1GEM-3)
EA1FFA 43.31.53N 005.40.64WIN73DM 37.282km 14°NNE18:31:53ZMMDVM MMDVM HS Hat 438.8000/438.8000 CC1
EA1HJA 43.28.10N 005.30.45WIN73FL 37.444km 37°NE18:22:21Z IN73FL WX3IN1+ 2.0 - V=14.0V,TX TEMP=44.5C
IN73FL WX3IN1+ 2.0 - V=13.2V,TX TEMP=24.6C(2EA1HJA-2)
EB1TK 43.32.22N 005.42.32WIN73DM 38.067km 10°N18:35:25ZBeni, Gijón. HamTETRA APRS(3EB1TK-12)
Wind 241°/005kn, Böen bis 007kn, Temp 10.56c, Regen 0.0mm, letzte 24h 0.5mm, seit 0h 0.5mm, Baro 1027.8h, Hum: 85%(2EB1TK-13)
LEEL 43.32.98N 005.41.71WIN73DN 39.580km 11°N18:30:18ZHelipuerto de El Musel: LEAS 301730Z 26003KT 9999 FEW042 SCT060 10/08 Q1025 NOSIG=
EA1AHA 43.32.72N 005.54.38WIN73BN 39.597km 346°NNW18:32:48ZWind 000°/000kn, Böen bis 000kn, Temp 12.78c, Regen 0.0mm, letzte 24h 0.0mm, seit 0h 0.0mm, Baro 1027.0h, Hum: 70%(3EA1AHA-13)

aprs.pl 5.0.011w DL3EL © 2006-2021 [1163996]